Time;durP1;ratioP1;P1;durP2;ratioP2;P2;SDS_P1;SDS_P2;PMS_P1;PMS_P2;Temp;Humidity;BMP_temperature;BMP_pressure;BME280_temperature;BME280_humidity;BME280_pressure;Samples;Min_cycle;Max_cycle;Signal;HPM_P1;HPM_P2
2023/04/07 00:01:07;;;;;;;0.30;0.30;;;;;;;18.77;43.29;101005.25;5094077;28;20103;-47
2023/04/07 00:03:33;;;;;;;0.20;0.20;;;;;;;18.76;43.24;101006.38;5092689;28;20048;-49
2023/04/07 00:05:59;;;;;;;0.30;0.30;;;;;;;18.74;43.35;101006.66;5074170;28;20040;-49
2023/04/07 00:08:25;;;;;;;0.30;0.30;;;;;;;18.76;43.23;101011.88;5073933;28;20044;-48
2023/04/07 00:10:50;;;;;;;0.30;0.30;;;;;;;18.75;43.40;101008.31;5073690;28;20914;-49
2023/04/07 00:13:16;;;;;;;0.30;0.30;;;;;;;18.75;43.08;101016.56;5073239;28;20651;-48
2023/04/07 00:15:42;;;;;;;0.20;0.20;;;;;;;18.74;43.36;101012.16;5074216;28;20052;-47
2023/04/07 00:18:07;;;;;;;0.30;0.30;;;;;;;18.75;43.32;101013.81;5073765;28;20044;-47
2023/04/07 00:20:33;;;;;;;0.20;0.20;;;;;;;18.75;43.40;101013.00;5076496;28;20192;-47
2023/04/07 00:22:59;;;;;;;0.30;0.30;;;;;;;18.75;43.15;101007.47;5087227;28;20058;-49
2023/04/07 00:25:25;;;;;;;0.30;0.30;;;;;;;18.75;43.52;101013.00;5087527;28;20058;-48
2023/04/07 00:27:50;;;;;;;0.30;0.30;;;;;;;18.76;42.97;101020.16;5078979;28;20532;-49
2023/04/07 00:30:16;;;;;;;0.30;0.30;;;;;;;18.75;43.51;101010.25;5097209;28;20504;-49
2023/04/07 00:32:42;;;;;;;0.20;0.20;;;;;;;18.74;43.34;101012.16;5097033;28;20090;-49
2023/04/07 00:35:10;;;;;;;0.20;0.20;;;;;;;18.75;43.15;101013.00;5097604;28;20351;-48
2023/04/07 00:37:36;;;;;;;0.30;0.30;;;;;;;18.75;43.33;101004.72;5097265;28;20047;-47
2023/04/07 00:40:03;;;;;;;0.20;0.20;;;;;;;18.75;43.36;101004.72;5097141;28;20044;-49
2023/04/07 00:42:28;;;;;;;0.28;0.28;;;;;;;18.75;43.37;101004.72;5088414;28;20377;-48
2023/04/07 00:44:54;;;;;;;0.20;0.20;;;;;;;18.74;43.40;101005.84;5076899;28;20101;-50
2023/04/07 00:47:19;;;;;;;0.30;0.30;;;;;;;18.75;43.05;101007.47;5075650;28;20048;-49
2023/04/07 00:49:45;;;;;;;0.20;0.20;;;;;;;18.73;43.11;101004.97;5076663;28;20097;-48
2023/04/07 00:52:11;;;;;;;0.30;0.30;;;;;;;18.74;43.37;101006.66;5076680;28;20260;-48
2023/04/07 00:54:38;;;;;;;0.30;0.30;;;;;;;18.74;43.30;101003.06;5076677;28;20196;-48
2023/04/07 00:57:04;;;;;;;0.22;0.22;;;;;;;18.75;43.33;100996.44;5075542;28;20059;-49
2023/04/07 00:59:31;;;;;;;0.20;0.20;;;;;;;18.75;43.32;101001.97;5076794;28;20048;-50
2023/04/07 01:02:03;;;;;;;0.20;0.20;;;;;;;18.75;43.08;100996.44;5080339;28;20443;-51
2023/04/07 01:04:36;;;;;;;0.30;0.30;;;;;;;18.74;43.14;100986.53;5080681;28;20151;-48
2023/04/07 01:07:05;;;;;;;0.30;0.30;;;;;;;18.75;43.20;100993.69;5077198;28;20094;-48
2023/04/07 01:09:36;;;;;;;0.20;0.20;;;;;;;18.74;43.28;100992.88;5075542;28;20040;-48
2023/04/07 01:12:41;;;;;;;0.20;0.20;;;;;;;18.75;43.17;100993.69;5076798;28;20059;-48
2023/04/07 01:15:09;;;;;;;0.20;0.20;;;;;;;18.73;43.01;100988.41;5077603;28;20172;-48
2023/04/07 01:17:37;;;;;;;0.20;0.20;;;;;;;18.74;43.14;100997.56;5076359;28;20520;-48
2023/04/07 01:20:07;;;;;;;0.20;0.20;;;;;;;18.73;43.36;100988.41;5076274;28;20397;-48
2023/04/07 01:22:39;;;;;;;0.20;0.20;;;;;;;18.73;42.95;100991.19;5076111;28;20087;-48
2023/04/07 01:25:44;;;;;;;0.20;0.20;;;;;;;18.73;43.18;100985.66;5089283;28;20052;-49
2023/04/07 01:28:28;;;;;;;0.20;0.20;;;;;;;18.73;43.06;100985.66;5083576;28;20495;-49
2023/04/07 01:30:55;;;;;;;0.25;0.25;;;;;;;18.73;43.32;100991.19;5096052;28;20048;-48
2023/04/07 01:33:22;;;;;;;0.20;0.20;;;;;;;18.74;43.14;100989.28;5091220;28;20055;-48
2023/04/07 01:35:48;;;;;;;0.30;0.30;;;;;;;18.73;43.10;100984.84;5075723;28;20044;-49
2023/04/07 01:38:15;;;;;;;0.30;0.30;;;;;;;18.73;43.15;100993.94;5091479;28;20486;-48
2023/04/07 01:40:40;;;;;;;0.30;0.30;;;;;;;18.74;43.38;100995.63;5058197;28;20465;-47
2023/04/07 01:43:07;;;;;;;0.20;0.20;;;;;;;18.73;43.36;100987.59;5088621;28;20532;-47
2023/04/07 01:45:34;;;;;;;0.30;0.30;;;;;;;18.73;43.16;100987.59;5076954;28;20334;-48
2023/04/07 01:48:00;;;;;;;0.20;0.20;;;;;;;18.73;43.37;100991.19;5074629;28;20039;-48
2023/04/07 01:50:27;;;;;;;0.30;0.30;;;;;;;18.73;43.28;100990.34;5076229;28;20454;-48
2023/04/07 01:52:53;;;;;;;0.20;0.20;;;;;;;18.73;43.44;100996.69;5075862;28;20097;-49
2023/04/07 01:55:18;;;;;;;0.30;0.30;;;;;;;18.73;43.26;100987.59;5075885;28;20406;-48
2023/04/07 01:57:44;;;;;;;0.30;0.30;;;;;;;18.73;43.34;100990.34;5075901;28;20134;-47
2023/04/07 02:00:10;;;;;;;0.30;0.30;;;;;;;18.73;43.26;100998.63;5076610;28;20376;-49
2023/04/07 02:02:40;;;;;;;0.30;0.30;;;;;;;18.73;43.34;100993.13;5089085;28;20100;-48
2023/04/07 02:05:08;;;;;;;0.30;0.30;;;;;;;18.72;43.27;100992.28;5078137;28;20043;-47
2023/04/07 02:07:40;;;;;;;0.20;0.20;;;;;;;18.73;43.46;100996.69;5096461;28;20047;-48
2023/04/07 02:10:09;;;;;;;0.30;0.30;;;;;;;18.72;43.16;100994.22;5096761;28;20116;-48
2023/04/07 02:12:36;;;;;;;0.30;0.30;;;;;;;18.73;43.44;100991.19;5096475;28;20055;-49
2023/04/07 02:15:02;;;;;;;0.20;0.20;;;;;;;18.72;43.37;100989.53;5096041;28;20044;-48
2023/04/07 02:17:29;;;;;;;0.20;0.20;;;;;;;18.72;43.16;100992.28;5077596;28;20283;-48
2023/04/07 02:19:56;;;;;;;0.30;0.30;;;;;;;18.72;43.31;100991.47;5096351;28;20043;-48
2023/04/07 02:22:21;;;;;;;0.30;0.30;;;;;;;18.73;43.44;100995.88;5095900;28;20051;-48
2023/04/07 02:24:47;;;;;;;0.30;0.30;;;;;;;18.73;43.10;100998.63;5095518;28;20100;-48
2023/04/07 02:27:13;;;;;;;0.20;0.20;;;;;;;18.73;43.13;100990.34;5094746;28;20077;-48
2023/04/07 02:29:38;;;;;;;0.30;0.30;;;;;;;18.72;43.41;100999.75;5095153;28;20048;-49
2023/04/07 02:32:05;;;;;;;0.30;0.30;;;;;;;18.71;43.47;100987.88;5091302;28;20443;-49
2023/04/07 02:34:30;;;;;;;0.20;0.20;;;;;;;18.71;43.47;100995.34;5075372;28;20580;-48
2023/04/07 02:36:56;;;;;;;0.30;0.30;;;;;;;18.73;43.37;101001.41;5075400;28;20044;-48
2023/04/07 02:39:22;;;;;;;0.30;0.30;;;;;;;18.72;43.50;100997.00;5075435;28;20408;-48
2023/04/07 02:41:47;;;;;;;0.30;0.30;;;;;;;18.72;43.29;100994.22;5074636;28;20044;-48
2023/04/07 02:44:13;;;;;;;0.30;0.30;;;;;;;18.72;43.46;100997.00;5082636;28;20043;-47
2023/04/07 02:46:40;;;;;;;0.30;0.30;;;;;;;18.72;43.19;100997.81;5095478;28;20044;-48
2023/04/07 02:49:05;;;;;;;0.30;0.30;;;;;;;18.72;43.22;100999.75;5095509;28;20071;-48
2023/04/07 02:51:31;;;;;;;0.30;0.30;;;;;;;18.72;43.38;101006.09;5095969;28;20102;-48
2023/04/07 02:53:57;;;;;;;0.20;0.20;;;;;;;18.72;43.10;101002.50;5095363;28;20047;-47
2023/04/07 02:56:23;;;;;;;0.28;0.28;;;;;;;18.72;43.07;101005.25;5095169;28;20046;-49
2023/04/07 02:58:48;;;;;;;0.30;0.30;;;;;;;18.71;43.43;101004.44;5095300;28;20393;-48
2023/04/07 03:01:14;;;;;;;0.30;0.30;;;;;;;18.71;43.39;101006.38;5086366;28;20052;-49
2023/04/07 03:03:41;;;;;;;0.30;0.30;;;;;;;18.71;43.11;101006.38;5094997;28;20050;-48
2023/04/07 03:06:07;;;;;;;0.20;0.20;;;;;;;18.72;43.41;101016.28;5095135;28;20523;-49
2023/04/07 03:08:32;;;;;;;0.20;0.20;;;;;;;18.72;43.37;101010.78;5095296;28;20046;-48
2023/04/07 03:10:58;;;;;;;0.30;0.30;;;;;;;18.72;43.50;101016.28;5095262;28;20048;-47
2023/04/07 03:13:24;;;;;;;0.20;0.20;;;;;;;18.71;43.09;101017.41;5095405;28;20543;-48
2023/04/07 03:15:50;;;;;;;0.20;0.20;;;;;;;18.71;43.36;101015.47;5094910;28;20039;-48
2023/04/07 03:18:15;;;;;;;0.20;0.20;;;;;;;18.70;43.40;101013.81;5095013;28;20039;-47
2023/04/07 03:20:41;;;;;;;0.20;0.20;;;;;;;18.70;43.44;101011.06;5094835;28;20067;-49
2023/04/07 03:23:07;;;;;;;0.20;0.20;;;;;;;18.70;43.37;101011.06;5094793;28;20043;-48
2023/04/07 03:25:32;;;;;;;0.30;0.30;;;;;;;18.70;43.40;101016.59;5076621;28;20109;-47
2023/04/07 03:27:58;;;;;;;0.20;0.20;;;;;;;18.71;43.42;101022.94;5094149;28;20047;-48
2023/04/07 03:30:24;;;;;;;0.22;0.22;;;;;;;18.71;43.23;101015.47;5094536;28;20410;-48
2023/04/07 03:32:50;;;;;;;0.20;0.20;;;;;;;18.71;43.26;101022.94;5094731;28;20154;-48
2023/04/07 03:35:15;;;;;;;0.20;0.20;;;;;;;18.71;43.27;101021.00;5094750;28;20078;-49
2023/04/07 03:37:41;;;;;;;0.20;0.20;;;;;;;18.72;43.16;101021.81;5076277;28;20523;-47
2023/04/07 03:40:07;;;;;;;0.30;0.30;;;;;;;18.70;43.39;101016.59;5093935;28;20048;-52
2023/04/07 03:42:33;;;;;;;0.20;0.20;;;;;;;18.70;43.57;101016.59;5094507;28;20092;-48
2023/04/07 03:44:58;;;;;;;0.30;0.30;;;;;;;18.70;43.47;101018.53;5094853;28;20047;-48
2023/04/07 03:47:24;;;;;;;0.30;0.30;;;;;;;18.70;43.27;101011.06;5093655;28;20055;-47
2023/04/07 03:49:50;;;;;;;0.30;0.30;;;;;;;18.71;43.06;101022.94;5094682;28;20104;-48
2023/04/07 03:52:16;;;;;;;0.20;0.20;;;;;;;18.70;43.44;101018.53;5088063;28;20777;-48
2023/04/07 03:54:42;;;;;;;0.30;0.30;;;;;;;18.71;43.31;101020.16;5077912;28;20411;-47
2023/04/07 03:57:08;;;;;;;0.30;0.30;;;;;;;18.71;43.44;101028.44;5077704;28;20496;-48
2023/04/07 03:59:34;;;;;;;0.20;0.20;;;;;;;18.69;43.19;101025.94;5077755;28;20044;-47
2023/04/07 04:02:00;;;;;;;0.20;0.20;;;;;;;18.72;43.26;101030.09;5094081;28;20048;-49
2023/04/07 04:04:25;;;;;;;0.20;0.20;;;;;;;18.70;43.36;101027.63;5098016;28;20096;-49
2023/04/07 04:06:51;;;;;;;0.25;0.25;;;;;;;18.69;43.42;101028.69;5097988;28;20100;-48
2023/04/07 04:09:17;;;;;;;0.20;0.20;;;;;;;18.70;43.17;101038.66;5097944;28;20502;-48
2023/04/07 04:11:43;;;;;;;0.20;0.20;;;;;;;18.70;43.10;101041.41;5097496;28;20522;-48
2023/04/07 04:14:08;;;;;;;0.20;0.20;;;;;;;18.71;43.48;101039.47;5079333;28;20440;-47
2023/04/07 04:16:34;;;;;;;0.20;0.20;;;;;;;18.70;43.48;101040.59;5098324;28;20527;-48
2023/04/07 04:19:00;;;;;;;0.25;0.25;;;;;;;18.69;43.29;101039.72;5097929;28;20181;-48
2023/04/07 04:21:26;;;;;;;0.30;0.30;;;;;;;18.70;43.32;101035.06;5097656;28;20452;-47
2023/04/07 04:23:52;;;;;;;0.20;0.20;;;;;;;18.70;43.25;101038.66;5079439;28;20139;-49
2023/04/07 04:26:18;;;;;;;0.20;0.20;;;;;;;18.69;43.37;101036.97;5098168;28;20044;-48
2023/04/07 04:28:44;;;;;;;0.28;0.28;;;;;;;18.69;43.22;101053.53;5097502;28;20043;-47
2023/04/07 04:31:09;;;;;;;0.25;0.25;;;;;;;18.70;43.45;101046.94;5096946;28;20051;-47
2023/04/07 04:33:35;;;;;;;0.30;0.30;;;;;;;18.70;43.49;101043.34;5096805;28;20051;-49
2023/04/07 04:36:01;;;;;;;0.30;0.30;;;;;;;18.70;43.62;101054.38;5098005;28;20052;-48
2023/04/07 04:38:26;;;;;;;0.20;0.20;;;;;;;18.70;43.39;101057.97;5079260;28;20057;-48
2023/04/07 04:40:52;;;;;;;0.20;0.20;;;;;;;18.69;43.18;101061.81;5097393;28;20409;-48
2023/04/07 04:43:18;;;;;;;0.30;0.30;;;;;;;18.70;43.22;101051.63;5097136;28;20275;-47
2023/04/07 04:45:43;;;;;;;0.20;0.20;;;;;;;18.71;43.43;101058.78;5097769;28;20540;-47
2023/04/07 04:48:10;;;;;;;0.30;0.30;;;;;;;18.69;43.46;101059.03;5096779;28;20051;-47
2023/04/07 04:50:35;;;;;;;0.30;0.30;;;;;;;18.71;43.22;101069.81;5096705;28;20075;-48
2023/04/07 04:53:01;;;;;;;0.20;0.20;;;;;;;18.70;43.25;101068.19;5084490;28;20079;-47
2023/04/07 04:55:27;;;;;;;0.20;0.20;;;;;;;18.70;43.48;101065.41;5076350;28;20148;-49
2023/04/07 04:57:53;;;;;;;0.30;0.30;;;;;;;18.70;43.15;101068.19;5076916;28;20388;-48
2023/04/07 05:00:19;;;;;;;0.30;0.30;;;;;;;18.70;43.38;101065.41;5087369;28;20108;-48
2023/04/07 05:02:45;;;;;;;0.30;0.30;;;;;;;18.69;43.36;101070.06;5096405;28;20734;-48
2023/04/07 05:05:11;;;;;;;0.30;0.30;;;;;;;18.70;43.38;101066.25;5095770;28;20035;-48
2023/04/07 05:07:39;;;;;;;0.30;0.30;;;;;;;18.69;43.44;101072.84;5096662;28;20074;-48
2023/04/07 05:10:06;;;;;;;0.30;0.30;;;;;;;18.70;43.40;101065.41;5096460;28;20070;-49
2023/04/07 05:12:32;;;;;;;0.20;0.20;;;;;;;18.69;43.41;101075.59;5096305;28;20051;-48
2023/04/07 05:14:58;;;;;;;0.20;0.20;;;;;;;18.70;43.47;101070.94;5096740;28;20131;-48
2023/04/07 05:17:23;;;;;;;0.20;0.20;;;;;;;18.69;43.25;101075.59;5096780;28;20048;-47
2023/04/07 05:19:49;;;;;;;0.55;0.32;;;;;;;18.70;43.30;101080.03;5097078;28;20059;-50
2023/04/07 05:22:15;;;;;;;0.30;0.30;;;;;;;18.69;43.52;101086.63;5096274;28;20510;-48
2023/04/07 05:24:41;;;;;;;0.20;0.20;;;;;;;18.70;43.50;101084.72;5096313;28;20541;-48
2023/04/07 05:27:06;;;;;;;0.30;0.30;;;;;;;18.69;43.17;101086.63;5096479;28;20043;-48
2023/04/07 05:29:32;;;;;;;0.20;0.20;;;;;;;18.69;43.35;101092.16;5097011;28;20432;-48
2023/04/07 05:31:58;;;;;;;0.30;0.30;;;;;;;18.69;43.50;101100.41;5095554;28;20066;-52
2023/04/07 05:34:23;;;;;;;0.20;0.20;;;;;;;18.69;43.30;101094.91;5096126;28;20043;-47
2023/04/07 05:36:49;;;;;;;0.30;0.30;;;;;;;18.70;43.57;101095.75;5096839;28;20051;-48
2023/04/07 05:39:15;;;;;;;0.20;0.20;;;;;;;18.68;43.28;101098.75;5096531;28;20082;-48
2023/04/07 05:41:41;;;;;;;0.30;0.30;;;;;;;18.69;43.40;101100.41;5096325;28;20044;-48
2023/04/07 05:44:06;;;;;;;0.30;0.30;;;;;;;18.70;43.55;101104.03;5096453;28;20484;-48
2023/04/07 05:46:32;;;;;;;0.20;0.20;;;;;;;18.69;43.50;101105.94;5096647;28;20039;-48
2023/04/07 05:48:58;;;;;;;0.30;0.30;;;;;;;18.69;43.39;101100.41;5096415;28;20047;-48
2023/04/07 05:51:30;;;;;;;0.30;0.30;;;;;;;18.70;43.37;101106.78;5096000;28;20144;-47
2023/04/07 05:53:56;;;;;;;0.20;0.20;;;;;;;18.69;43.45;101105.94;5075914;28;20588;-49
2023/04/07 05:56:21;;;;;;;0.30;0.30;;;;;;;18.69;43.40;101110.59;5075752;28;20044;-48
2023/04/07 05:58:47;;;;;;;0.30;0.30;;;;;;;18.68;43.30;101115.28;5076171;28;20048;-49
2023/04/07 06:01:13;;;;;;;0.30;0.30;;;;;;;18.69;43.56;101116.13;5076131;28;20047;-48
2023/04/07 06:03:39;;;;;;;0.30;0.30;;;;;;;18.69;43.46;101116.13;5075259;28;20060;-50
2023/04/07 06:06:05;;;;;;;0.30;0.30;;;;;;;18.69;43.36;101125.25;5075722;28;20043;-48
2023/04/07 06:08:31;;;;;;;0.30;0.30;;;;;;;18.70;43.33;101128.88;5075917;28;20544;-48
2023/04/07 06:10:57;;;;;;;0.20;0.20;;;;;;;18.68;43.65;101129.09;5076067;28;20043;-47
2023/04/07 06:13:22;;;;;;;0.30;0.30;;;;;;;18.68;43.45;101126.31;5075130;28;20044;-48
2023/04/07 06:15:48;;;;;;;0.30;0.30;;;;;;;18.69;43.25;101132.66;5075718;28;20045;-48
2023/04/07 06:18:14;;;;;;;0.30;0.30;;;;;;;18.69;43.25;101129.91;5075446;28;20051;-49
2023/04/07 06:20:40;;;;;;;0.20;0.20;;;;;;;18.69;43.49;101132.66;5076027;28;20071;-48
2023/04/07 06:23:05;;;;;;;0.20;0.20;;;;;;;18.69;43.30;101136.28;5075502;28;20101;-48
2023/04/07 06:25:31;;;;;;;0.30;0.30;;;;;;;18.68;43.37;101137.38;5075492;28;20051;-48
2023/04/07 06:27:57;;;;;;;0.30;0.30;;;;;;;18.69;43.59;101135.44;5074958;28;20044;-48
2023/04/07 06:30:22;;;;;;;0.30;0.30;;;;;;;18.68;43.54;101137.38;5075720;28;20488;-48
2023/04/07 06:32:48;;;;;;;0.20;0.20;;;;;;;18.69;43.53;101139.03;5078374;28;20051;-49
2023/04/07 06:35:14;;;;;;;0.30;0.30;;;;;;;18.70;43.63;101139.91;5079614;28;20576;-49
2023/04/07 06:37:39;;;;;;;0.25;0.25;;;;;;;18.68;43.52;101142.06;5094654;28;20075;-50
2023/04/07 06:40:06;;;;;;;0.30;0.30;;;;;;;18.69;43.25;101140.94;5095569;28;20059;-48
2023/04/07 06:42:32;;;;;;;0.30;0.30;;;;;;;18.68;43.50;101139.31;5095705;28;20043;-48
2023/04/07 06:44:57;;;;;;;0.30;0.30;;;;;;;18.69;43.58;101150.09;5095374;28;20058;-49
2023/04/07 06:47:23;;;;;;;0.30;0.30;;;;;;;18.69;43.40;101151.97;5095540;28;20097;-48
2023/04/07 06:49:49;;;;;;;0.30;0.30;;;;;;;18.69;43.62;101150.09;5094946;28;20468;-49
2023/04/07 06:52:14;;;;;;;0.30;0.30;;;;;;;18.69;43.48;101149.22;5094825;28;20066;-49
2023/04/07 06:54:40;;;;;;;0.20;0.20;;;;;;;18.68;43.31;101153.09;5095109;28;20154;-47
2023/04/07 06:57:10;;;;;;;0.30;0.30;;;;;;;18.69;43.63;101154.75;5094993;28;20048;-48
2023/04/07 06:59:37;;;;;;;0.30;0.30;;;;;;;18.68;43.38;101156.69;5095009;28;20551;-49
2023/04/07 07:02:03;;;;;;;0.30;0.30;;;;;;;18.68;43.44;101162.19;5076815;28;20074;-48
2023/04/07 07:04:29;;;;;;;0.20;0.20;;;;;;;18.68;43.55;101161.38;5095243;28;20051;-48
2023/04/07 07:06:54;;;;;;;0.30;0.30;;;;;;;18.68;43.66;101169.66;5095130;28;20055;-49
2023/04/07 07:09:21;;;;;;;0.30;0.30;;;;;;;18.69;43.54;101171.28;5095159;28;20047;-47
2023/04/07 07:11:46;;;;;;;0.30;0.30;;;;;;;18.69;43.30;101177.66;5092777;28;20048;-48
2023/04/07 07:14:12;;;;;;;0.30;0.30;;;;;;;18.69;43.36;101176.81;5075195;28;20112;-48
2023/04/07 07:16:38;;;;;;;0.30;0.30;;;;;;;18.68;43.54;101178.75;5074679;28;20047;-49
2023/04/07 07:19:03;;;;;;;0.30;0.30;;;;;;;18.68;43.34;101175.97;5074898;28;20457;-50
2023/04/07 07:21:30;;;;;;;0.30;0.30;;;;;;;18.69;43.57;101174.91;5074805;28;20040;-49
2023/04/07 07:23:56;;;;;;;0.30;0.30;;;;;;;18.68;43.33;101180.69;5075365;28;20048;-50
2023/04/07 07:26:21;;;;;;;0.30;0.30;;;;;;;18.69;43.37;101179.56;5074720;28;20047;-48
2023/04/07 07:28:47;;;;;;;0.30;0.30;;;;;;;18.68;43.34;101186.19;5074293;28;20067;-48
2023/04/07 07:31:14;;;;;;;0.20;0.20;;;;;;;18.69;43.61;101179.56;5056414;28;20439;-48
2023/04/07 07:33:42;;;;;;;0.30;0.30;;;;;;;18.68;43.68;101186.19;5056882;28;20056;-47
2023/04/07 07:36:08;;;;;;;0.20;0.20;;;;;;;18.68;43.36;101187.03;5093250;28;20043;-48
2023/04/07 07:38:34;;;;;;;0.30;0.30;;;;;;;18.67;43.34;101185.38;5094209;28;20047;-48
2023/04/07 07:41:02;;;;;;;;;;;;;;;18.68;43.52;101183.44;5077532;28;20043;-49
2023/04/07 07:43:28;;;;;;;0.30;0.30;;;;;;;18.68;43.50;101191.72;5094997;28;19946;-48
2023/04/07 07:45:54;;;;;;;0.30;0.30;;;;;;;18.68;43.70;101198.06;5095248;28;20112;-47
2023/04/07 07:48:19;;;;;;;0.30;0.30;;;;;;;18.67;43.52;101196.41;5094856;28;20504;-48
2023/04/07 07:50:45;;;;;;;0.30;0.30;;;;;;;18.67;43.50;101196.41;5094996;28;20039;-48
2023/04/07 07:53:11;;;;;;;0.30;0.30;;;;;;;18.68;43.39;101202.75;5094432;28;20071;-48
2023/04/07 07:55:37;;;;;;;0.30;0.30;;;;;;;18.68;43.56;101203.56;5095123;28;20145;-48
2023/04/07 07:58:02;;;;;;;0.30;0.30;;;;;;;18.68;43.46;101209.09;5094749;28;20048;-50
2023/04/07 08:00:28;;;;;;;0.30;0.30;;;;;;;18.68;43.47;101208.25;5094801;28;20071;-48
2023/04/07 08:02:54;;;;;;;0.30;0.30;;;;;;;18.68;43.55;101209.09;5082779;28;20079;-49
2023/04/07 08:05:20;;;;;;;0.30;0.30;;;;;;;18.68;43.46;101208.25;5091737;28;20046;-48
2023/04/07 08:07:46;;;;;;;0.30;0.30;;;;;;;18.68;43.55;101208.25;5076209;28;20561;-49
2023/04/07 08:10:12;;;;;;;0.30;0.30;;;;;;;18.67;43.37;101212.97;5076277;28;20215;-48
2023/04/07 08:12:38;;;;;;;0.30;0.30;;;;;;;18.68;43.52;101222.06;5094269;28;20488;-50
2023/04/07 08:15:05;;;;;;;0.30;0.30;;;;;;;18.69;43.35;101212.69;5094500;28;20240;-49
2023/04/07 08:17:30;;;;;;;0.30;0.30;;;;;;;18.68;43.48;101222.06;5094658;28;20173;-48
2023/04/07 08:19:56;;;;;;;0.28;0.28;;;;;;;18.68;43.43;101224.81;5094118;28;20503;-50
2023/04/07 08:22:22;;;;;;;0.30;0.30;;;;;;;18.68;43.63;101230.34;5093933;28;20104;-48
2023/04/07 08:24:47;;;;;;;0.30;0.30;;;;;;;18.68;43.53;101225.66;5094117;28;20055;-49
2023/04/07 08:27:13;;;;;;;0.30;0.30;;;;;;;18.67;43.39;101224.00;5094409;28;20040;-48
2023/04/07 08:29:39;;;;;;;0.30;0.30;;;;;;;18.66;43.45;101225.09;5075669;28;20044;-48
2023/04/07 08:32:04;;;;;;;0.28;0.28;;;;;;;18.68;43.56;101227.56;5093687;28;20044;-49
2023/04/07 08:34:30;;;;;;;0.30;0.30;;;;;;;18.68;43.47;101233.91;5093963;28;20059;-48
2023/04/07 08:36:56;;;;;;;0.20;0.20;;;;;;;18.66;43.49;101233.38;5093768;28;20047;-49
2023/04/07 08:39:24;;;;;;;0.20;0.20;;;;;;;18.67;43.67;101240.53;5099540;27;20069;-49
2023/04/07 08:41:50;;;;;;;0.30;0.30;;;;;;;18.67;43.42;101240.53;5094110;28;20047;-48
2023/04/07 08:44:17;;;;;;;0.30;0.30;;;;;;;18.68;43.47;101244.13;5085142;28;20054;-50
2023/04/07 08:46:43;;;;;;;0.30;0.30;;;;;;;18.68;43.50;101249.66;5097855;28;20043;-47
2023/04/07 08:49:12;;;;;;;0.30;0.30;;;;;;;18.68;43.64;101252.41;5097325;28;20039;-48
2023/04/07 08:51:45;;;;;;;0.30;0.30;;;;;;;18.68;43.40;101253.22;5079169;28;20048;-49
2023/04/07 08:54:13;;;;;;;0.30;0.30;;;;;;;18.68;43.49;101249.66;5079092;28;20039;-48
2023/04/07 08:56:40;;;;;;;0.20;0.20;;;;;;;18.67;43.55;101259.84;5095816;28;20453;-47
2023/04/07 08:59:07;;;;;;;0.20;0.20;;;;;;;18.68;43.41;101260.69;5097738;28;20128;-48
2023/04/07 09:01:34;;;;;;;0.30;0.30;;;;;;;18.68;43.49;101257.91;5095801;28;20415;-50
2023/04/07 09:04:01;;;;;;;0.30;0.30;;;;;;;18.68;43.63;101263.44;5082469;28;20146;-50
2023/04/07 09:06:30;;;;;;;0.30;0.30;;;;;;;18.68;43.45;101269.78;5078975;28;20074;-47
2023/04/07 09:08:57;;;;;;;0.20;0.20;;;;;;;18.68;43.47;101266.19;5079288;28;20087;-48
2023/04/07 09:11:23;;;;;;;0.20;0.20;;;;;;;18.68;43.64;101257.91;5096896;28;20121;-49
2023/04/07 09:13:50;;;;;;;0.30;0.30;;;;;;;18.67;43.65;101262.63;5078516;28;20135;-48
2023/04/07 09:16:15;;;;;;;0.30;0.30;;;;;;;18.66;43.45;101266.47;5078707;28;20359;-49
2023/04/07 09:18:41;;;;;;;0.30;0.30;;;;;;;18.68;43.52;101268.97;5079183;28;20051;-48
2023/04/07 09:21:07;;;;;;;0.20;0.20;;;;;;;18.67;43.45;101268.13;5096992;28;20051;-48
2023/04/07 09:23:35;;;;;;;0.30;0.30;;;;;;;18.67;43.69;101273.66;5078392;28;20054;-47
2023/04/07 09:26:21;;;;;;;0.30;0.30;;;;;;;18.68;43.56;101268.97;5097072;28;20484;-49
2023/04/07 09:28:58;;;;;;;0.20;0.20;;;;;;;18.68;43.56;101274.47;5097084;28;20051;-49
2023/04/07 09:31:45;;;;;;;0.30;0.30;;;;;;;18.68;43.58;101274.47;5078712;28;20097;-48
2023/04/07 09:34:27;;;;;;;0.30;0.30;;;;;;;18.67;43.59;101270.06;5082032;28;20107;-48
2023/04/07 09:36:54;;;;;;;0.30;0.30;;;;;;;18.67;43.60;101273.66;5097170;28;20072;-48
2023/04/07 09:39:20;;;;;;;0.30;0.30;;;;;;;18.67;43.58;101279.16;5096552;28;20055;-49
2023/04/07 09:41:45;;;;;;;0.30;0.30;;;;;;;18.67;43.63;101275.59;5076696;28;20595;-48
2023/04/07 09:44:11;;;;;;;0.30;0.30;;;;;;;18.66;43.76;101268.41;5076088;28;20396;-48
2023/04/07 09:46:57;;;;;;;0.30;0.30;;;;;;;18.68;43.60;101263.44;5076247;28;20048;-48
2023/04/07 09:49:24;;;;;;;0.40;0.40;;;;;;;18.67;43.58;101267.31;5078119;28;20101;-47
2023/04/07 09:52:04;;;;;;;0.30;0.30;;;;;;;18.67;43.47;101270.88;5091438;28;20638;-48
2023/04/07 09:54:39;;;;;;;0.30;0.30;;;;;;;18.67;43.52;101279.16;5091515;28;20511;-48
2023/04/07 09:57:07;;;;;;;0.30;0.30;;;;;;;18.67;43.65;101276.41;5094664;28;20039;-47
2023/04/07 09:59:35;;;;;;;0.30;0.30;;;;;;;18.67;43.71;101286.63;5095696;28;20503;-49
2023/04/07 10:02:01;;;;;;;0.20;0.20;;;;;;;18.67;43.83;101281.94;5074471;28;20454;-47
2023/04/07 10:04:28;;;;;;;0.30;0.30;;;;;;;18.67;43.76;101290.19;5091654;28;20075;-48
2023/04/07 10:06:54;;;;;;;0.30;0.30;;;;;;;18.67;43.41;101281.94;5058134;28;20138;-48
2023/04/07 10:09:22;;;;;;;0.40;0.40;;;;;;;18.67;43.54;101273.66;5091322;28;20234;-49
2023/04/07 10:11:49;;;;;;;0.20;0.20;;;;;;;18.68;43.55;101286.34;5057995;28;20048;-49
2023/04/07 10:14:16;;;;;;;0.30;0.30;;;;;;;18.68;43.77;101288.28;5057468;28;20044;-48
2023/04/07 10:16:43;;;;;;;0.30;0.30;;;;;;;18.68;43.55;101288.28;5075718;28;20530;-47
2023/04/07 10:19:09;;;;;;;0.30;0.30;;;;;;;18.67;43.66;101290.19;5075729;28;20044;-49
2023/04/07 10:21:38;;;;;;;0.20;0.20;;;;;;;18.67;43.84;101290.19;5075893;28;20056;-49
2023/04/07 10:24:32;;;;;;;0.30;0.30;;;;;;;18.67;43.49;101292.97;5090856;28;20242;-48
2023/04/07 10:27:01;;;;;;;0.30;0.30;;;;;;;18.68;43.54;101299.31;5088380;28;20081;-48
2023/04/07 10:29:28;;;;;;;0.30;0.30;;;;;;;18.67;43.77;101289.38;5075104;28;20052;-47
2023/04/07 10:31:54;;;;;;;0.22;0.22;;;;;;;18.67;43.79;101304.00;5075875;28;20090;-49
2023/04/07 10:37:24;;;;;;;0.30;0.30;;;;;;;18.67;43.60;101297.66;5174311;27;20135;-45
2023/04/07 10:40:11;;;;;;;0.20;0.20;;;;;;;18.66;43.58;101296.00;5118900;27;20102;-46
2023/04/07 10:45:14;;;;;;;0.30;0.30;;;;;;;18.67;43.90;101306.75;5157030;27;20124;-47
2023/04/07 10:50:35;;;;;;;0.30;0.30;;;;;;;18.65;43.70;101303.44;5174063;27;20979;-48
2023/04/07 10:53:07;;;;;;;0.30;0.30;;;;;;;18.67;43.57;101316.97;5153486;27;20478;-49
2023/04/07 10:58:28;;;;;;;0.30;0.30;;;;;;;18.66;43.79;101310.63;5174123;27;20124;-45
2023/04/07 11:03:58;;;;;;;0.30;0.30;;;;;;;18.67;43.73;101315.03;5174566;27;20120;-46
2023/04/07 11:06:25;;;;;;;0.30;0.30;;;;;;;18.66;43.60;101318.91;5153142;27;20047;-45
2023/04/07 11:08:51;;;;;;;0.30;0.30;;;;;;;18.67;43.76;101314.19;5134585;27;20069;-49
2023/04/07 11:11:36;;;;;;;0.30;0.30;;;;;;;18.67;43.81;101306.75;5153163;27;20465;-45
2023/04/07 11:14:02;;;;;;;0.30;0.30;;;;;;;18.66;43.61;101321.66;5153210;27;20491;-46
2023/04/07 11:16:37;;;;;;;0.30;0.30;;;;;;;18.67;43.59;101319.72;5152487;27;20378;-46
2023/04/07 11:19:02;;;;;;;0.30;0.30;;;;;;;18.67;43.88;101330.75;5134351;27;20403;-46
2023/04/07 11:21:29;;;;;;;0.30;0.30;;;;;;;18.66;43.86;101321.66;5152566;27;20050;-48
2023/04/07 11:23:55;;;;;;;0.30;0.30;;;;;;;18.66;43.71;101327.16;5152457;27;20091;-49
2023/04/07 11:26:21;;;;;;;0.20;0.20;;;;;;;18.68;43.90;101324.13;5153001;27;20067;-46
2023/04/07 11:28:48;;;;;;;0.30;0.30;;;;;;;18.67;43.66;101331.59;5152489;27;20046;-47
2023/04/07 11:31:25;;;;;;;0.30;0.30;;;;;;;18.67;43.71;101328.81;5149054;27;20458;-45
2023/04/07 11:33:54;;;;;;;0.30;0.30;;;;;;;18.68;43.89;101335.16;5132426;27;20050;-47
2023/04/07 11:36:29;;;;;;;0.20;0.20;;;;;;;18.67;43.66;101330.75;5114042;27;20054;-46
2023/04/07 11:38:57;;;;;;;0.20;0.20;;;;;;;18.67;43.80;101331.59;5113450;27;20042;-48